Time;durP1;ratioP1;P1;durP2;ratioP2;P2;SDS_P1;SDS_P2;PMS_P1;PMS_P2;Temp;Humidity;BMP_temperature;BMP_pressure;BME280_temperature;BME280_humidity;BME280_pressure;Samples;Min_cycle;Max_cycle;Signal;HPM_P1;HPM_P2
2021/06/26 00:00:51;;;;;;;;;;;;;;;;;;4956140;28;20707;-78
2021/06/26 00:03:18;;;;;;;;;;;;;;;;;;4970864;28;19992;-79
2021/06/26 00:05:45;;;;;;;;;;;;;;;;;;4965136;28;19962;-79
2021/06/26 00:08:12;;;;;;;;;;;;;;;;;;4961935;28;20369;-79
2021/06/26 00:10:39;;;;;;;;;;;;;;;;;;4950738;28;19930;-80
2021/06/26 00:13:06;;;;;;;;;;;;;;;;;;4947867;29;19965;-79
2021/06/26 00:15:33;;;;;;;;;;;;;;;;;;4950508;29;19926;-79
2021/06/26 00:18:00;;;;;;;;;;;;;;;;;;4952774;28;19966;-79
2021/06/26 00:20:27;;;;;;;;;;;;;;;;;;4949659;28;19969;-80
2021/06/26 00:22:55;;;;;;;;;;;;;;;;;;4958604;28;19933;-80
2021/06/26 00:25:25;;;;;;;;;;;;;;;;;;4956351;29;20017;-81
2021/06/26 00:27:52;;;;;;;;;;;;;;;;;;4956709;29;20367;-80
2021/06/26 00:30:19;;;;;;;;;;;;;;;;;;4956880;28;19957;-80
2021/06/26 00:32:46;;;;;;;;;;;;;;;;;;4955419;29;19965;-80
2021/06/26 00:35:14;;;;;;;;;;;;;;;;;;4957216;28;19976;-81
2021/06/26 00:37:41;;;;;;;;;;;;;;;;;;4962846;28;20017;-81
2021/06/26 00:40:08;;;;;;;;;;;;;;;;;;4970196;28;20415;-80
2021/06/26 00:42:35;;;;;;;;;;;;;;;;;;4962357;28;19961;-80
2021/06/26 00:45:02;;;;;;;;;;;;;;;;;;4955473;29;20028;-80
2021/06/26 00:47:29;;;;;;;;;;;;;;;;;;4954930;28;20004;-81
2021/06/26 00:49:58;;;;;;;;;;;;;;;;;;4959335;28;20012;-81
2021/06/26 00:52:25;;;;;;;;;;;;;;;;;;4970703;28;19969;-81
2021/06/26 00:54:57;;;;;;;;;;;;;;;;;;4975282;28;19972;-80
2021/06/26 00:57:24;;;;;;;;;;;;;;;;;;4974867;28;20114;-80
2021/06/26 00:59:51;;;;;;;;;;;;;;;;;;4966630;28;20032;-80
2021/06/26 01:02:18;;;;;;;;;;;;;;;;;;4954584;29;19969;-80
2021/06/26 01:04:45;;;;;;;;;;;;;;;;;;4957057;28;20005;-80
2021/06/26 01:07:14;;;;;;;;;;;;;;;;;;4975681;28;19948;-80
2021/06/26 01:09:42;;;;;;;;;;;;;;;;;;4975621;28;19925;-80
2021/06/26 01:12:09;;;;;;;;;;;;;;;;;;4966849;28;19933;-81
2021/06/26 01:14:36;;;;;;;;;;;;;;;;;;4956081;29;20014;-80
2021/06/26 01:17:04;;;;;;;;;;;;;;;;;;4954842;28;19973;-80
2021/06/26 01:19:31;;;;;;;;;;;;;;;;;;4956063;29;19969;-81
2021/06/26 01:21:59;;;;;;;;;;;;;;;;;;4956209;29;20010;-80
2021/06/26 01:24:26;;;;;;;;;;;;;;;;;;4955407;29;19984;-80
2021/06/26 01:26:53;;;;;;;;;;;;;;;;;;4959633;28;20327;-80
2021/06/26 01:29:20;;;;;;;;;;;;;;;;;;4973321;28;20057;-80
2021/06/26 01:31:48;;;;;;;;;;;;;;;;;;4970698;28;19930;-80
2021/06/26 01:34:15;;;;;;;;;;;;;;;;;;4953785;29;20021;-80
2021/06/26 01:36:42;;;;;;;;;;;;;;;;;;4957480;28;20577;-80
2021/06/26 01:39:09;;;;;;;;;;;;;;;;;;4973937;28;20008;-80
2021/06/26 01:41:36;;;;;;;;;;;;;;;;;;4970097;28;20012;-80
2021/06/26 01:44:03;;;;;;;;;;;;;;;;;;4974973;28;19965;-80
2021/06/26 01:46:30;;;;;;;;;;;;;;;;;;4973435;28;20053;-80
2021/06/26 01:48:57;;;;;;;;;;;;;;;;;;4970002;28;19961;-80
2021/06/26 01:51:24;;;;;;;;;;;;;;;;;;4953031;28;19953;-80
2021/06/26 01:53:51;;;;;;;;;;;;;;;;;;4951047;29;20013;-80
2021/06/26 01:56:19;;;;;;;;;;;;;;;;;;4953621;29;20734;-80
2021/06/26 01:58:46;;;;;;;;;;;;;;;;;;4955390;28;19970;-80
2021/06/26 02:01:13;;;;;;;;;;;;;;;;;;4953468;29;20025;-80
2021/06/26 02:03:40;;;;;;;;;;;;;;;;;;4955340;29;20342;-80
2021/06/26 02:06:07;;;;;;;;;;;;;;;;;;4953966;29;20336;-81
2021/06/26 02:08:36;;;;;;;;;;;;;;;;;;4954137;29;19966;-80
2021/06/26 02:11:03;;;;;;;;;;;;;;;;;;4955412;28;19953;-81
2021/06/26 02:13:30;;;;;;;;;;;;;;;;;;4954308;29;19965;-80
2021/06/26 02:15:58;;;;;;;;;;;;;;;;;;4954011;29;20063;-80
2021/06/26 02:18:25;;;;;;;;;;;;;;;;;;4954970;29;19929;-80
2021/06/26 02:20:52;;;;;;;;;;;;;;;;;;4953889;29;19982;-80
2021/06/26 02:23:22;;;;;;;;;;;;;;;;;;4953526;29;19932;-80
2021/06/26 02:25:50;;;;;;;;;;;;;;;;;;4954114;29;20360;-80
2021/06/26 02:28:17;;;;;;;;;;;;;;;;;;4959437;28;19933;-80
2021/06/26 02:30:44;;;;;;;;;;;;;;;;;;4953885;29;19991;-81
2021/06/26 02:33:11;;;;;;;;;;;;;;;;;;4953825;29;19972;-80
2021/06/26 02:35:38;;;;;;;;;;;;;;;;;;4953063;28;20658;-81
2021/06/26 02:38:05;;;;;;;;;;;;;;;;;;4954787;29;20362;-81
2021/06/26 02:40:32;;;;;;;;;;;;;;;;;;4953418;28;19965;-81
2021/06/26 02:43:00;;;;;;;;;;;;;;;;;;4953744;29;19923;-81
2021/06/26 02:45:27;;;;;;;;;;;;;;;;;;4955019;28;19974;-82
2021/06/26 02:47:54;;;;;;;;;;;;;;;;;;4953874;29;20005;-81
2021/06/26 02:50:22;;;;;;;;;;;;;;;;;;4953435;29;20040;-81
2021/06/26 02:52:49;;;;;;;;;;;;;;;;;;4953472;29;19926;-81
2021/06/26 02:55:17;;;;;;;;;;;;;;;;;;4953752;29;20006;-80
2021/06/26 02:57:44;;;;;;;;;;;;;;;;;;4953730;29;19929;-81
2021/06/26 03:00:11;;;;;;;;;;;;;;;;;;4953595;29;20032;-81
2021/06/26 03:02:40;;;;;;;;;;;;;;;;;;4964683;28;20012;-81
2021/06/26 03:05:11;;;;;;;;;;;;;;;;;;4968854;28;19969;-80
2021/06/26 03:07:38;;;;;;;;;;;;;;;;;;4971346;28;19969;-80
2021/06/26 03:10:06;;;;;;;;;;;;;;;;;;4972308;28;20017;-80
2021/06/26 03:12:33;;;;;;;;;;;;;;;;;;4971152;28;20418;-80
2021/06/26 03:15:01;;;;;;;;;;;;;;;;;;4954723;29;19923;-80
2021/06/26 03:17:28;;;;;;;;;;;;;;;;;;4953051;29;20029;-80
2021/06/26 03:19:55;;;;;;;;;;;;;;;;;;4954619;29;20309;-81
2021/06/26 03:22:22;;;;;;;;;;;;;;;;;;4952984;29;19970;-80
2021/06/26 03:24:49;;;;;;;;;;;;;;;;;;4952192;29;19922;-81
2021/06/26 03:27:16;;;;;;;;;;;;;;;;;;4953008;29;19922;-80
2021/06/26 03:29:43;;;;;;;;;;;;;;;;;;4952826;29;20009;-80
2021/06/26 03:32:11;;;;;;;;;;;;;;;;;;4955198;28;19965;-80
2021/06/26 03:34:39;;;;;;;;;;;;;;;;;;4963498;28;20665;-80
2021/06/26 03:37:06;;;;;;;;;;;;;;;;;;4972485;28;19969;-80
2021/06/26 03:39:33;;;;;;;;;;;;;;;;;;4971769;28;19926;-80
2021/06/26 03:42:00;;;;;;;;;;;;;;;;;;4970794;28;19986;-79
2021/06/26 03:44:27;;;;;;;;;;;;;;;;;;4960361;28;19929;-80
2021/06/26 03:46:54;;;;;;;;;;;;;;;;;;4957547;28;20004;-80
2021/06/26 03:49:22;;;;;;;;;;;;;;;;;;4971535;28;20008;-80
2021/06/26 03:51:49;;;;;;;;;;;;;;;;;;4960615;28;19969;-80
2021/06/26 03:54:17;;;;;;;;;;;;;;;;;;4952296;28;19922;-80
2021/06/26 03:56:46;;;;;;;;;;;;;;;;;;4951921;29;20289;-80
2021/06/26 03:59:13;;;;;;;;;;;;;;;;;;4952066;29;19926;-80
2021/06/26 04:01:40;;;;;;;;;;;;;;;;;;4951444;28;20311;-80
2021/06/26 04:04:08;;;;;;;;;;;;;;;;;;4952579;29;19933;-80
2021/06/26 04:06:35;;;;;;;;;;;;;;;;;;4952259;29;20008;-80
2021/06/26 04:09:05;;;;;;;;;;;;;;;;;;4955271;28;19954;-80
2021/06/26 04:11:32;;;;;;;;;;;;;;;;;;4951662;29;19938;-79
2021/06/26 04:13:59;;;;;;;;;;;;;;;;;;4951512;29;20009;-79
2021/06/26 04:16:26;;;;;;;;;;;;;;;;;;4949919;29;19957;-80
2021/06/26 04:18:53;;;;;;;;;;;;;;;;;;4947678;29;19936;-80
2021/06/26 04:21:20;;;;;;;;;;;;;;;;;;4950720;29;20451;-79
2021/06/26 04:23:48;;;;;;;;;;;;;;;;;;4951589;29;20017;-80
2021/06/26 04:26:15;;;;;;;;;;;;;;;;;;4962911;28;20007;-80
2021/06/26 04:28:42;;;;;;;;;;;;;;;;;;4958077;28;20654;-79
2021/06/26 04:31:09;;;;;;;;;;;;;;;;;;4952334;28;20008;-79
2021/06/26 04:33:36;;;;;;;;;;;;;;;;;;4955890;28;20718;-79
2021/06/26 04:36:05;;;;;;;;;;;;;;;;;;4952884;28;19973;-80
2021/06/26 04:38:32;;;;;;;;;;;;;;;;;;4951569;29;20021;-79
2021/06/26 04:40:59;;;;;;;;;;;;;;;;;;4953192;28;19961;-80
2021/06/26 04:43:26;;;;;;;;;;;;;;;;;;4958664;28;20041;-80
2021/06/26 04:45:53;;;;;;;;;;;;;;;;;;4952769;29;20021;-80
2021/06/26 04:48:20;;;;;;;;;;;;;;;;;;4950439;28;19930;-80
2021/06/26 04:50:47;;;;;;;;;;;;;;;;;;4966859;28;20013;-80
2021/06/26 04:53:15;;;;;;;;;;;;;;;;;;4961385;28;20013;-80
2021/06/26 04:55:51;;;;;;;;;;;;;;;;;;4948169;29;20001;-79
2021/06/26 04:58:18;;;;;;;;;;;;;;;;;;4954981;28;19977;-79
2021/06/26 05:00:45;;;;;;;;;;;;;;;;;;4963933;28;20001;-79
2021/06/26 05:03:12;;;;;;;;;;;;;;;;;;4960639;28;21295;-80
2021/06/26 05:05:41;;;;;;;;;;;;;;;;;;4945896;28;19926;-79
2021/06/26 05:08:08;;;;;;;;;;;;;;;;;;4963824;28;20025;-79
2021/06/26 05:10:35;;;;;;;;;;;;;;;;;;4971917;28;19932;-79
2021/06/26 05:13:02;;;;;;;;;;;;;;;;;;4968431;28;19953;-79
2021/06/26 05:15:30;;;;;;;;;;;;;;;;;;4953375;29;20399;-79
2021/06/26 05:17:57;;;;;;;;;;;;;;;;;;4954125;29;19981;-79
2021/06/26 05:20:24;;;;;;;;;;;;;;;;;;4955808;28;19962;-79
2021/06/26 05:22:51;;;;;;;;;;;;;;;;;;4953877;28;20426;-79
2021/06/26 05:25:18;;;;;;;;;;;;;;;;;;4963753;28;19996;-79
2021/06/26 05:27:45;;;;;;;;;;;;;;;;;;4969428;28;19973;-79
2021/06/26 05:30:12;;;;;;;;;;;;;;;;;;4957833;28;19936;-79
2021/06/26 05:32:39;;;;;;;;;;;;;;;;;;4959338;28;19933;-79
2021/06/26 05:35:07;;;;;;;;;;;;;;;;;;4953226;29;20639;-79
2021/06/26 05:37:34;;;;;;;;;;;;;;;;;;4963253;28;20676;-80
2021/06/26 05:40:01;;;;;;;;;;;;;;;;;;4969606;28;20012;-80
2021/06/26 05:42:28;;;;;;;;;;;;;;;;;;4953826;28;19972;-80
2021/06/26 05:44:55;;;;;;;;;;;;;;;;;;4958688;28;19962;-80
2021/06/26 05:47:22;;;;;;;;;;;;;;;;;;4955086;29;20514;-80
2021/06/26 05:49:53;;;;;;;;;;;;;;;;;;4955837;28;19922;-80
2021/06/26 05:52:20;;;;;;;;;;;;;;;;;;4947398;28;19954;-80
2021/06/26 05:54:47;;;;;;;;;;;;;;;;;;4956774;28;20012;-77
2021/06/26 05:57:15;;;;;;;;;;;;;;;;;;4953397;29;20013;-79
2021/06/26 06:02:30;;;;;;;;;;;;;;;;;;4914997;28;20339;-77
2021/06/26 06:04:58;;;;;;;;;;;;;;;;;;4932647;28;20407;-78
2021/06/26 06:07:25;;;;;;;;;;;;;;;;;;4909534;28;19927;-77
2021/06/26 06:09:52;;;;;;;;;;;;;;;;;;4910366;28;19985;-78
2021/06/26 06:12:19;;;;;;;;;;;;;;;;;;4901795;29;20644;-80
2021/06/26 06:14:46;;;;;;;;;;;;;;;;;;4904052;29;19923;-79
2021/06/26 06:17:13;;;;;;;;;;;;;;;;;;4912322;28;20030;-80
2021/06/26 06:19:40;;;;;;;;;;;;;;;;;;4899435;29;20010;-81
2021/06/26 06:22:08;;;;;;;;;;;;;;;;;;4893393;28;19934;-80
2021/06/26 06:24:35;;;;;;;;;;;;;;;;;;4903669;28;20018;-84
2021/06/26 06:27:03;;;;;;;;;;;;;;;;;;4905371;28;19974;-81
2021/06/26 06:29:32;;;;;;;;;;;;;;;;;;4910545;28;19970;-82
2021/06/26 06:31:59;;;;;;;;;;;;;;;;;;4990636;28;20387;-83
2021/06/26 06:34:26;;;;;;;;;;;;;;;;;;4910707;29;19927;-83
2021/06/26 06:36:53;;;;;;;;;;;;;;;;;;4900817;28;20077;-83
2021/06/26 06:39:20;;;;;;;;;;;;;;;;;;4911238;28;19970;-85
2021/06/26 06:41:47;;;;;;;;;;;;;;;;;;4906378;28;19923;-80
2021/06/26 06:44:15;;;;;;;;;;;;;;;;;;4912795;28;19927;-79
2021/06/26 06:46:42;;;;;;;;;;;;;;;;;;4925197;23;20021;-84
2021/06/26 06:49:09;;;;;;;;;;;;;;;;;;4924203;28;19927;-87
2021/06/26 06:51:37;;;;;;;;;;;;;;;;;;4899742;28;19926;-85
2021/06/26 06:54:04;;;;;;;;;;;;;;;;;;4925387;29;19926;-83
2021/06/26 06:56:31;;;;;;;;;;;;;;;;;;4924812;29;19926;-85
2021/06/26 06:58:58;;;;;;;;;;;;;;;;;;4917598;29;19933;-84
2021/06/26 07:01:26;;;;;;;;;;;;;;;;;;4915788;29;19927;-85
2021/06/26 07:03:53;;;;;;;;;;;;;;;;;;4939732;29;19933;-85
2021/06/26 07:06:20;;;;;;;;;;;;;;;;;;4935586;28;20021;-85
2021/06/26 07:08:48;;;;;;;;;;;;;;;;;;4929262;29;19974;-85
2021/06/26 07:11:15;;;;;;;;;;;;;;;;;;4908246;29;19953;-85
2021/06/26 07:13:42;;;;;;;;;;;;;;;;;;4907642;28;19927;-85
2021/06/26 07:16:09;;;;;;;;;;;;;;;;;;4925331;29;20033;-85
2021/06/26 07:18:36;;;;;;;;;;;;;;;;;;4925568;29;19927;-82
2021/06/26 07:21:03;;;;;;;;;;;;;;;;;;4926792;29;20025;-84
2021/06/26 07:23:32;;;;;;;;;;;;;;;;;;4908947;28;19969;-84
2021/06/26 07:26:00;;;;;;;;;;;;;;;;;;4909432;28;19972;-84
2021/06/26 07:28:27;;;;;;;;;;;;;;;;;;4926281;28;19970;-83
2021/06/26 07:30:54;;;;;;;;;;;;;;;;;;4910377;28;19927;-84
2021/06/26 07:33:21;;;;;;;;;;;;;;;;;;4909710;28;19927;-84
2021/06/26 07:35:48;;;;;;;;;;;;;;;;;;4908951;29;20013;-84
2021/06/26 07:38:15;;;;;;;;;;;;;;;;;;4908943;29;20415;-84
2021/06/26 07:40:43;;;;;;;;;;;;;;;;;;4909589;28;20039;-84
2021/06/26 07:43:11;;;;;;;;;;;;;;;;;;4910028;29;19930;-84
2021/06/26 07:45:38;;;;;;;;;;;;;;;;;;4910707;29;20155;-84
2021/06/26 07:48:06;;;;;;;;;;;;;;;;;;4911613;29;19923;-84
2021/06/26 07:50:34;;;;;;;;;;;;;;;;;;4911122;29;20427;-85
2021/06/26 07:53:01;;;;;;;;;;;;;;;;;;4915828;29;19923;-82
2021/06/26 07:55:31;;;;;;;;;;;;;;;;;;4913843;28;19977;-82
2021/06/26 07:57:58;;;;;;;;;;;;;;;;;;4907914;28;19975;-83
2021/06/26 08:00:25;;;;;;;;;;;;;;;;;;4929288;29;20030;-82
2021/06/26 08:02:53;;;;;;;;;;;;;;;;;;4916508;28;19962;-82
2021/06/26 08:05:20;;;;;;;;;;;;;;;;;;4913706;29;19926;-81
2021/06/26 08:07:51;;;;;;;;;;;;;;;;;;4916153;28;19922;-82
2021/06/26 08:10:18;;;;;;;;;;;;;;;;;;4911605;28;20010;-81
2021/06/26 08:12:45;;;;;;;;;;;;;;;;;;4928414;28;20008;-81
2021/06/26 08:15:12;;;;;;;;;;;;;;;;;;4966033;28;19927;-81
2021/06/26 08:17:52;;;;;;;;;;;;;;;;;;4915356;28;19962;-82
2021/06/26 08:20:19;;;;;;;;;;;;;;;;;;4910466;29;20017;-83
2021/06/26 08:23:00;;;;;;;;;;;;;;;;;;4931408;28;19925;-81
2021/06/26 08:25:27;;;;;;;;;;;;;;;;;;4924500;29;20025;-80
2021/06/26 08:27:55;;;;;;;;;;;;;;;;;;4931761;28;19922;-79
2021/06/26 08:30:22;;;;;;;;;;;;;;;;;;4931010;29;20014;-80
2021/06/26 08:32:49;;;;;;;;;;;;;;;;;;4938301;28;20524;-79
2021/06/26 08:35:18;;;;;;;;;;;;;;;;;;4913498;29;20407;-79
2021/06/26 08:37:47;;;;;;;;;;;;;;;;;;4929506;28;20301;-80
2021/06/26 08:40:15;;;;;;;;;;;;;;;;;;4912856;29;20326;-80
2021/06/26 08:42:42;;;;;;;;;;;;;;;;;;4933218;29;20014;-80
2021/06/26 08:45:12;;;;;;;;;;;;;;;;;;4921076;28;20008;-80
2021/06/26 08:47:40;;;;;;;;;;;;;;;;;;4932910;28;19929;-80
2021/06/26 08:50:07;;;;;;;;;;;;;;;;;;4934690;29;20018;-78
2021/06/26 08:52:34;;;;;;;;;;;;;;;;;;4934631;29;20593;-79
2021/06/26 08:55:02;;;;;;;;;;;;;;;;;;4917289;29;19973;-79
2021/06/26 08:57:29;;;;;;;;;;;;;;;;;;4917618;29;19929;-79
2021/06/26 08:59:58;;;;;;;;;;;;;;;;;;4914814;29;19989;-80
2021/06/26 09:02:25;;;;;;;;;;;;;;;;;;4934227;29;20371;-79
2021/06/26 09:04:52;;;;;;;;;;;;;;;;;;4932775;28;20009;-81
2021/06/26 09:07:19;;;;;;;;;;;;;;;;;;4934552;29;20009;-81
2021/06/26 09:09:47;;;;;;;;;;;;;;;;;;4933332;28;20454;-83
2021/06/26 09:12:19;;;;;;;;;;;;;;;;;;4943428;28;19926;-77
2021/06/26 09:14:46;;;;;;;;;;;;;;;;;;4912729;28;19923;-77
2021/06/26 09:17:17;;;;;;;;;;;;;;;;;;4913273;28;19965;-77
2021/06/26 09:19:44;;;;;;;;;;;;;;;;;;4919132;28;19969;-77
2021/06/26 09:22:12;;;;;;;;;;;;;;;;;;4932819;29;20017;-77
2021/06/26 09:24:41;;;;;;;;;;;;;;;;;;4916135;29;20370;-78
2021/06/26 09:27:08;;;;;;;;;;;;;;;;;;4931969;29;20665;-77
2021/06/26 09:29:35;;;;;;;;;;;;;;;;;;4908791;29;20029;-77
2021/06/26 09:32:03;;;;;;;;;;;;;;;;;;4924872;29;20022;-77
2021/06/26 09:34:30;;;;;;;;;;;;;;;;;;4929141;28;19923;-77
2021/06/26 09:36:57;;;;;;;;;;;;;;;;;;4931644;29;20018;-77
2021/06/26 09:39:24;;;;;;;;;;;;;;;;;;4932594;28;19958;-78
2021/06/26 09:41:52;;;;;;;;;;;;;;;;;;4932481;29;19952;-77
2021/06/26 09:44:19;;;;;;;;;;;;;;;;;;4932083;28;19970;-77
2021/06/26 09:46:46;;;;;;;;;;;;;;;;;;4932088;29;20543;-77
2021/06/26 09:49:14;;;;;;;;;;;;;;;;;;4931649;28;20484;-77
2021/06/26 09:51:41;;;;;;;;;;;;;;;;;;4932348;29;19923;-77
2021/06/26 09:54:09;;;;;;;;;;;;;;;;;;4915094;29;20504;-77
2021/06/26 09:56:37;;;;;;;;;;;;;;;;;;4932627;28;19933;-77
2021/06/26 09:59:04;;;;;;;;;;;;;;;;;;4933137;29;20030;-78
2021/06/26 10:01:31;;;;;;;;;;;;;;;;;;4932469;28;19931;-79
2021/06/26 10:03:58;;;;;;;;;;;;;;;;;;4932629;28;19953;-77
2021/06/26 10:06:26;;;;;;;;;;;;;;;;;;4932019;29;19960;-77
2021/06/26 10:08:53;;;;;;;;;;;;;;;;;;4931806;29;20006;-79
2021/06/26 10:11:33;;;;;;;;;;;;;;;;;;4915724;29;19930;-78
2021/06/26 10:14:01;;;;;;;;;;;;;;;;;;4923145;28;20026;-78
2021/06/26 10:16:29;;;;;;;;;;;;;;;;;;4927746;28;19970;-78
2021/06/26 10:18:56;;;;;;;;;;;;;;;;;;4932849;29;19977;-79
2021/06/26 10:21:23;;;;;;;;;;;;;;;;;;4914990;28;20056;-77
2021/06/26 10:23:50;;;;;;;;;;;;;;;;;;4930469;29;20424;-76
2021/06/26 10:26:17;;;;;;;;;;;;;;;;;;4931792;29;19961;-75
2021/06/26 10:28:44;;;;;;;;;;;;;;;;;;4929501;29;20001;-76
2021/06/26 10:31:13;;;;;;;;;;;;;;;;;;4921677;28;19980;-76
2021/06/26 10:33:41;;;;;;;;;;;;;;;;;;4929685;28;20008;-77
2021/06/26 10:36:11;;;;;;;;;;;;;;;;;;4931528;28;19927;-76
2021/06/26 10:38:40;;;;;;;;;;;;;;;;;;4930366;29;19972;-76
2021/06/26 10:41:07;;;;;;;;;;;;;;;;;;4914147;29;19929;-76
2021/06/26 10:43:35;;;;;;;;;;;;;;;;;;4930357;29;19922;-77
2021/06/26 10:46:02;;;;;;;;;;;;;;;;;;4931062;28;20026;-77
2021/06/26 10:48:30;;;;;;;;;;;;;;;;;;4930939;29;19927;-76
2021/06/26 10:50:57;;;;;;;;;;;;;;;;;;4930980;29;19977;-77
2021/06/26 10:53:24;;;;;;;;;;;;;;;;;;4930955;29;20666;-77
2021/06/26 10:55:51;;;;;;;;;;;;;;;;;;4931151;29;19922;-76
2021/06/26 10:58:18;;;;;;;;;;;;;;;;;;4931184;29;20017;-78
2021/06/26 11:00:46;;;;;;;;;;;;;;;;;;4930363;28;19994;-76
2021/06/26 11:03:13;;;;;;;;;;;;;;;;;;4923437;29;19965;-76
2021/06/26 11:05:40;;;;;;;;;;;;;;;;;;4930787;29;19980;-76
2021/06/26 11:08:07;;;;;;;;;;;;;;;;;;4930764;29;20005;-77
2021/06/26 11:10:34;;;;;;;;;;;;;;;;;;4930880;28;20002;-77
2021/06/26 11:13:02;;;;;;;;;;;;;;;;;;4930921;28;20037;-77
2021/06/26 11:15:29;;;;;;;;;;;;;;;;;;4913470;29;19954;-77
2021/06/26 11:17:56;;;;;;;;;;;;;;;;;;4930487;29;19972;-77
2021/06/26 11:20:23;;;;;;;;;;;;;;;;;;4913876;29;20038;-76
2021/06/26 11:22:50;;;;;;;;;;;;;;;;;;4930566;29;19927;-77
2021/06/26 11:25:17;;;;;;;;;;;;;;;;;;4930619;29;20013;-77
2021/06/26 11:27:44;;;;;;;;;;;;;;;;;;4930600;29;20018;-77
2021/06/26 11:30:12;;;;;;;;;;;;;;;;;;4928997;29;20451;-76
2021/06/26 11:32:39;;;;;;;;;;;;;;;;;;4930779;29;20328;-77
2021/06/26 11:35:06;;;;;;;;;;;;;;;;;;4913906;29;20403;-77
2021/06/26 11:37:34;;;;;;;;;;;;;;;;;;4931558;29;20013;-77
2021/06/26 11:40:01;;;;;;;;;;;;;;;;;;4931094;29;19961;-76
2021/06/26 11:42:28;;;;;;;;;;;;;;;;;;4930031;29;20439;-77
2021/06/26 11:44:55;;;;;;;;;;;;;;;;;;4931712;29;19985;-76
2021/06/26 11:47:22;;;;;;;;;;;;;;;;;;4928777;28;19926;-76
2021/06/26 11:49:49;;;;;;;;;;;;;;;;;;4911266;29;20025;-76
2021/06/26 11:52:16;;;;;;;;;;;;;;;;;;4928439;29;19926;-77
2021/06/26 11:54:43;;;;;;;;;;;;;;;;;;4911247;29;19933;-76
2021/06/26 11:57:14;;;;;;;;;;;;;;;;;;4927777;29;20330;-76
2021/06/26 11:59:41;;;;;;;;;;;;;;;;;;4927982;29;20387;-76
2021/06/26 12:02:08;;;;;;;;;;;;;;;;;;4927594;28;20748;-76
2021/06/26 12:04:35;;;;;;;;;;;;;;;;;;4927378;29;19926;-76
2021/06/26 12:07:02;;;;;;;;;;;;;;;;;;4927148;29;19986;-76
2021/06/26 12:09:29;;;;;;;;;;;;;;;;;;4911094;29;19937;-76
2021/06/26 12:11:57;;;;;;;;;;;;;;;;;;4928198;29;19922;-77
2021/06/26 12:14:24;;;;;;;;;;;;;;;;;;4927443;28;20603;-76
2021/06/26 12:16:51;;;;;;;;;;;;;;;;;;4928467;29;20018;-76
2021/06/26 12:19:18;;;;;;;;;;;;;;;;;;4929001;29;20037;-76
2021/06/26 12:21:45;;;;;;;;;;;;;;;;;;4930626;28;20010;-80
2021/06/26 12:24:12;;;;;;;;;;;;;;;;;;4914594;28;19998;-81
2021/06/26 12:26:39;;;;;;;;;;;;;;;;;;4931778;29;20703;-85
2021/06/26 12:29:06;;;;;;;;;;;;;;;;;;4931703;29;20017;-81
2021/06/26 12:31:33;;;;;;;;;;;;;;;;;;4931934;29;20018;-90
2021/06/26 12:34:01;;;;;;;;;;;;;;;;;;4931585;28;19923;-80
2021/06/26 12:36:28;;;;;;;;;;;;;;;;;;4930008;29;20021;-79
2021/06/26 12:38:55;;;;;;;;;;;;;;;;;;4931400;28;20327;-79
2021/06/26 12:41:22;;;;;;;;;;;;;;;;;;4931425;29;20268;-80
2021/06/26 12:43:49;;;;;;;;;;;;;;;;;;4930939;29;20013;-78
2021/06/26 12:46:16;;;;;;;;;;;;;;;;;;4914159;28;20399;-81
2021/06/26 12:48:48;;;;;;;;;;;;;;;;;;4914643;29;19926;-82
2021/06/26 12:51:17;;;;;;;;;;;;;;;;;;4914109;28;19930;-80
2021/06/26 12:53:44;;;;;;;;;;;;;;;;;;4914829;29;19969;-80
2021/06/26 12:56:11;;;;;;;;;;;;;;;;;;4914524;29;20017;-80
2021/06/26 12:58:38;;;;;;;;;;;;;;;;;;4932187;29;20702;-80
2021/06/26 13:01:05;;;;;;;;;;;;;;;;;;4915588;29;20021;-79
2021/06/26 13:03:33;;;;;;;;;;;;;;;;;;4914698;29;19950;-79
2021/06/26 13:06:02;;;;;;;;;;;;;;;;;;4915476;28;19953;-77
2021/06/26 13:08:32;;;;;;;;;;;;;;;;;;4929404;28;20012;-75
2021/06/26 13:11:01;;;;;;;;;;;;;;;;;;4913228;29;19929;-76
2021/06/26 13:13:28;;;;;;;;;;;;;;;;;;4929153;28;20013;-77
2021/06/26 13:15:55;;;;;;;;;;;;;;;;;;4930276;29;20030;-76
2021/06/26 13:18:22;;;;;;;;;;;;;;;;;;4928341;29;19934;-75
2021/06/26 13:20:49;;;;;;;;;;;;;;;;;;4929719;28;19927;-78
2021/06/26 13:23:16;;;;;;;;;;;;;;;;;;4930355;29;19954;-76
2021/06/26 13:25:43;;;;;;;;;;;;;;;;;;4933182;29;19922;-76
2021/06/26 13:28:10;;;;;;;;;;;;;;;;;;4917227;29;19977;-77
2021/06/26 13:30:37;;;;;;;;;;;;;;;;;;4917647;28;19954;-77
2021/06/26 13:33:05;;;;;;;;;;;;;;;;;;4934327;29;19938;-77
2021/06/26 13:35:34;;;;;;;;;;;;;;;;;;4932618;29;20014;-77
2021/06/26 13:38:01;;;;;;;;;;;;;;;;;;4933651;29;19923;-77
2021/06/26 13:40:28;;;;;;;;;;;;;;;;;;4933378;29;20008;-77
2021/06/26 13:43:01;;;;;;;;;;;;;;;;;;4933806;29;20390;-77
2021/06/26 13:45:29;;;;;;;;;;;;;;;;;;4914578;29;19973;-76
2021/06/26 13:47:56;;;;;;;;;;;;;;;;;;4932700;28;19958;-75
2021/06/26 13:50:24;;;;;;;;;;;;;;;;;;4906627;28;20715;-77
2021/06/26 13:52:51;;;;;;;;;;;;;;;;;;4931778;29;19929;-76
2021/06/26 13:58:22;;;;;;;;;;;;;;;;;;4949718;23;19926;-77
2021/06/26 14:03:43;;;;;;;;;;;;;;;;;;4952631;28;19926;-78
2021/06/26 14:09:13;;;;;;;;;;;;;;;;;;5043647;22;20038;-78
2021/06/26 14:11:41;;;;;;;;;;;;;;;;;;5053195;28;19970;-79
2021/06/26 14:14:08;;;;;;;;;;;;;;;;;;5076529;22;20344;-77
2021/06/26 14:16:35;;;;;;;;;;;;;;;;;;5073346;22;20388;-77
2021/06/26 14:19:02;;;;;;;;;;;;;;;;;;5052656;28;19932;-77
2021/06/26 14:21:29;;;;;;;;;;;;;;;;;;5034005;28;19999;-77
2021/06/26 14:23:56;;;;;;;;;;;;;;;;;;5033595;28;19955;-76
2021/06/26 14:26:23;;;;;;;;;;;;;;;;;;5033530;28;20003;-76
2021/06/26 14:28:52;;;;;;;;;;;;;;;;;;5047659;28;20392;-78
2021/06/26 14:31:19;;;;;;;;;;;;;;;;;;5035881;28;19972;-78
2021/06/26 14:33:50;;;;;;;;;;;;;;;;;;5033194;28;19924;-78
2021/06/26 14:36:17;;;;;;;;;;;;;;;;;;5030839;28;19983;-81
2021/06/26 14:38:44;;;;;;;;;;;;;;;;;;5040226;28;19967;-79
2021/06/26 14:44:15;;;;;;;;;;;;;;;;;;5071584;23;20019;-77
2021/06/26 14:46:42;;;;;;;;;;;;;;;;;;5063128;28;19925;-77
2021/06/26 14:49:09;;;;;;;;;;;;;;;;;;5063875;28;20416;-79
2021/06/26 14:51:36;;;;;;;;;;;;;;;;;;5064439;28;19998;-78
2021/06/26 14:54:03;;;;;;;;;;;;;;;;;;5036617;28;20367;-79
2021/06/26 14:56:30;;;;;;;;;;;;;;;;;;5060704;28;19924;-79
2021/06/26 14:58:57;;;;;;;;;;;;;;;;;;5027232;28;20361;-80
2021/06/26 15:01:24;;;;;;;;;;;;;;;;;;5044006;28;19956;-80
2021/06/26 15:03:52;;;;;;;;;;;;;;;;;;5033012;28;19924;-80
2021/06/26 15:06:19;;;;;;;;;;;;;;;;;;5056210;28;20444;-79
2021/06/26 15:08:46;;;;;;;;;;;;;;;;;;5054213;28;19920;-79
2021/06/26 15:11:13;;;;;;;;;;;;;;;;;;5054053;28;20044;-80
2021/06/26 15:13:40;;;;;;;;;;;;;;;;;;5043421;28;20353;-78
2021/06/26 15:16:07;;;;;;;;;;;;;;;;;;5031152;28;19967;-79
2021/06/26 15:18:38;;;;;;;;;;;;;;;;;;5044248;28;19924;-80
2021/06/26 15:21:05;;;;;;;;;;;;;;;;;;5044514;28;19964;-80
2021/06/26 15:23:32;;;;;;;;;;;;;;;;;;5057556;28;20007;-79
2021/06/26 15:25:59;;;;;;;;;;;;;;;;;;5041142;28;19930;-79
2021/06/26 15:28:26;;;;;;;;;;;;;;;;;;5051164;28;19964;-80
2021/06/26 15:30:53;;;;;;;;;;;;;;;;;;5051711;28;19959;-79
2021/06/26 15:33:20;;;;;;;;;;;;;;;;;;5053969;28;20106;-80
2021/06/26 15:35:52;;;;;;;;;;;;;;;;;;5038544;28;20395;-78
2021/06/26 15:38:19;;;;;;;;;;;;;;;;;;5056390;28;20575;-79
2021/06/26 15:40:46;;;;;;;;;;;;;;;;;;5045024;28;19924;-79
2021/06/26 15:43:13;;;;;;;;;;;;;;;;;;5044917;28;19934;-80
2021/06/26 15:45:40;;;;;;;;;;;;;;;;;;5062957;28;19978;-80
2021/06/26 15:48:08;;;;;;;;;;;;;;;;;;5062944;28;20051;-80
2021/06/26 15:50:35;;;;;;;;;;;;;;;;;;5040320;28;20015;-80
2021/06/26 15:53:02;;;;;;;;;;;;;;;;;;5035222;28;19924;-78
2021/06/26 15:55:29;;;;;;;;;;;;;;;;;;5035225;28;20563;-79
2021/06/26 15:57:56;;;;;;;;;;;;;;;;;;5025059;28;20007;-79
2021/06/26 16:00:23;;;;;;;;;;;;;;;;;;5025586;28;20393;-79
2021/06/26 16:02:51;;;;;;;;;;;;;;;;;;5031102;28;20430;-80
2021/06/26 16:05:18;;;;;;;;;;;;;;;;;;5031640;28;19929;-79
2021/06/26 16:07:47;;;;;;;;;;;;;;;;;;5055433;28;20015;-82
2021/06/26 16:10:14;;;;;;;;;;;;;;;;;;5037211;28;20019;-79
2021/06/26 16:12:41;;;;;;;;;;;;;;;;;;5036651;28;19927;-78
2021/06/26 16:18:15;;;;;;;;;;;;;;;;;;5022071;28;20278;-82
2021/06/26 16:20:43;;;;;;;;;;;;;;;;;;5005933;28;19925;-82
2021/06/26 16:23:11;;;;;;;;;;;;;;;;;;5012394;28;19925;-82
2021/06/26 16:25:38;;;;;;;;;;;;;;;;;;5012893;28;19979;-81
2021/06/26 16:28:05;;;;;;;;;;;;;;;;;;5043529;28;19974;-82
2021/06/26 16:30:32;;;;;;;;;;;;;;;;;;5038691;28;20006;-84
2021/06/26 16:33:02;;;;;;;;;;;;;;;;;;5026436;28;19924;-84
2021/06/26 16:35:31;;;;;;;;;;;;;;;;;;5049295;28;20031;-84
2021/06/26 16:38:08;;;;;;;;;;;;;;;;;;5014098;28;19931;-83
2021/06/26 16:40:35;;;;;;;;;;;;;;;;;;5012127;28;19925;-82
2021/06/26 16:43:02;;;;;;;;;;;;;;;;;;5014599;28;20151;-82
2021/06/26 16:45:33;;;;;;;;;;;;;;;;;;4968971;28;20015;-83
2021/06/26 16:48:00;;;;;;;;;;;;;;;;;;5023544;28;19925;-83
2021/06/26 16:50:27;;;;;;;;;;;;;;;;;;5041637;28;19921;-83
2021/06/26 16:52:59;;;;;;;;;;;;;;;;;;5022073;28;20652;-83
2021/06/26 16:55:27;;;;;;;;;;;;;;;;;;5040230;28;20335;-83
2021/06/26 16:57:56;;;;;;;;;;;;;;;;;;5042445;23;19927;-82
2021/06/26 17:00:32;;;;;;;;;;;;;;;;;;5083417;28;20060;-83
2021/06/26 17:03:10;;;;;;;;;;;;;;;;;;5095162;28;20315;-83
2021/06/26 17:05:46;;;;;;;;;;;;;;;;;;5074664;28;20577;-84